Rauris, Austria
Current Conditions -  °F | °C
As of 5:50 AM on Saturday 25 Oct 2014 (Local Time) from LOWS Reporting Station
Few Clouds Few Clouds  
Wind Chill: 34°   Ceiling: Unl
Heat Index: 34°   Visibility: 4mi
Dew Point: 32°   Wind: 3mph
Humidity: 93%   Direction: 150°SSE
Pressure: 30.12"   Gusts: NA
Location:  47.23°N, 12.99°E
Report Text: LOWS 250350Z 15003KT 110V190 6000 2500N FEW001 01/00 Q1020 TEMPO 0800 BCFG
Loading
Personal Weather Stations






























Interactive Weather Map
Tropical Storm Tracking
New forecast layout! Learn more

10-Day Weather Forecast

Advertisements
Track Severe Weather on mobile